Time;durP1;ratioP1;P1;durP2;ratioP2;P2;SDS_P1;SDS_P2;PMS_P1;PMS_P2;Temp;Humidity;BMP_temperature;BMP_pressure;BME280_temperature;BME280_humidity;BME280_pressure;Samples;Min_cycle;Max_cycle;Signal;HPM_P1;HPM_P2
2022/06/06 00:00:51;;;;;;;6.53;3.37;;;;;;;16.01;100.00;100026.69;5030444;28;20232;-60
2022/06/06 00:03:18;;;;;;;4.00;3.70;;;;;;;16.02;100.00;100024.91;5043120;28;20240;-61
2022/06/06 00:05:47;;;;;;;4.40;3.43;;;;;;;15.95;100.00;100024.56;5032863;28;20178;-61
2022/06/06 00:08:14;;;;;;;5.20;3.67;;;;;;;15.96;100.00;100026.22;5033747;28;20228;-61
2022/06/06 00:10:41;;;;;;;6.83;3.40;;;;;;;15.85;100.00;100029.66;5041779;28;20239;-62
2022/06/06 00:13:08;;;;;;;3.97;3.67;;;;;;;15.91;100.00;100023.97;5032474;28;20617;-62
2022/06/06 00:15:34;;;;;;;4.63;3.87;;;;;;;15.91;100.00;100029.16;5034515;28;20593;-62
2022/06/06 00:18:00;;;;;;;5.33;3.90;;;;;;;15.94;100.00;100025.53;5037330;28;20732;-60
2022/06/06 00:20:26;;;;;;;5.40;3.93;;;;;;;15.87;100.00;100027.75;5042249;28;20217;-60
2022/06/06 00:22:51;;;;;;;3.77;3.47;;;;;;;15.91;100.00;100025.75;5052632;28;20638;-60
2022/06/06 00:25:16;;;;;;;4.37;3.83;;;;;;;15.81;100.00;100025.63;5046298;28;20537;-60
2022/06/06 00:27:41;;;;;;;4.90;4.40;;;;;;;15.81;100.00;100025.63;5031726;28;20672;-60
2022/06/06 00:30:07;;;;;;;4.53;4.13;;;;;;;15.72;100.00;100037.53;5027990;28;20201;-61
2022/06/06 00:35:20;;;;;;;6.23;4.57;;;;;;;15.72;100.00;100023.75;5053941;28;20181;-62
2022/06/06 00:37:47;;;;;;;6.73;4.57;;;;;;;15.67;100.00;100015.50;5052865;28;20190;-60
2022/06/06 00:40:15;;;;;;;6.73;4.83;;;;;;;15.79;100.00;100019.75;5041809;28;20181;-60
2022/06/06 00:42:42;;;;;;;7.20;4.90;;;;;;;15.72;100.00;100019.38;5052171;28;20190;-60
2022/06/06 00:45:18;;;;;;;5.37;4.87;;;;;;;15.64;100.00;100019.13;5034008;28;20189;-60
2022/06/06 00:47:46;;;;;;;5.40;4.90;;;;;;;15.60;100.00;100015.13;5032776;28;20235;-62
2022/06/06 00:50:18;;;;;;;6.47;4.77;;;;;;;15.63;100.00;100017.50;5024542;28;20239;-61
2022/06/06 00:52:47;;;;;;;5.40;5.00;;;;;;;15.60;100.00;100010.78;5046844;28;20182;-60
2022/06/06 00:55:20;;;;;;;5.57;5.13;;;;;;;15.66;100.00;100017.25;5031957;28;20175;-61
2022/06/06 00:57:55;;;;;;;7.07;5.77;;;;;;;15.53;100.00;100011.38;5033020;28;20174;-61
2022/06/06 01:00:22;;;;;;;7.80;5.27;;;;;;;15.55;100.00;100006.91;5024445;28;20541;-61
2022/06/06 01:02:53;;;;;;;7.90;5.47;;;;;;;15.58;100.00;100004.06;5032112;28;20626;-61
2022/06/06 01:05:20;;;;;;;6.07;5.47;;;;;;;15.54;100.00;99997.47;5033321;28;20186;-61
2022/06/06 01:07:45;;;;;;;8.57;5.70;;;;;;;15.54;100.00;99989.69;5044998;28;20220;-61
2022/06/06 01:10:11;;;;;;;5.47;4.93;;;;;;;15.56;100.00;99998.19;5038503;28;20228;-61
2022/06/06 01:12:38;;;;;;;6.63;6.00;;;;;;;15.54;100.00;99987.94;5032681;28;20217;-61
2022/06/06 01:15:09;;;;;;;6.97;6.20;;;;;;;15.48;100.00;99994.41;5050393;28;20181;-61
2022/06/06 01:17:49;;;;;;;9.70;6.40;;;;;;;15.40;100.00;99993.34;5052019;28;20224;-62
2022/06/06 01:20:32;;;;;;;7.83;6.50;;;;;;;15.39;100.00;99995.09;5041137;28;20545;-61
2022/06/06 01:23:04;;;;;;;7.50;6.27;;;;;;;15.40;100.00;99999.34;5051917;28;20208;-61
2022/06/06 01:25:53;;;;;;;7.83;6.60;;;;;;;15.26;100.00;100003.00;5043592;28;20193;-62
2022/06/06 01:28:34;;;;;;;10.93;6.17;;;;;;;15.31;100.00;100007.84;5040573;28;20272;-64
2022/06/06 01:31:05;;;;;;;7.60;6.77;;;;;;;15.25;100.00;100009.09;5042136;28;20229;-62
2022/06/06 01:33:48;;;;;;;7.00;6.33;;;;;;;15.11;100.00;100015.34;5043476;28;20180;-60
2022/06/06 01:36:13;;;;;;;7.40;6.77;;;;;;;14.99;100.00;100019.66;5050780;28;20212;-59
2022/06/06 01:38:40;;;;;;;7.40;6.70;;;;;;;15.08;100.00;100015.59;5051181;28;20544;-60
2022/06/06 01:41:11;;;;;;;7.53;6.50;;;;;;;15.07;100.00;100007.91;5027544;28;20314;-59
2022/06/06 01:43:47;;;;;;;8.43;6.90;;;;;;;14.99;100.00;100013.66;5053158;28;20190;-60
2022/06/06 01:46:20;;;;;;;9.37;7.67;;;;;;;14.98;100.00;100010.25;5030686;28;20178;-61
2022/06/06 01:48:48;;;;;;;8.70;7.77;;;;;;;15.03;100.00;100006.50;5031272;28;20240;-61
2022/06/06 01:51:20;;;;;;;8.23;7.43;;;;;;;14.96;100.00;100008.72;5023136;28;20229;-61
2022/06/06 01:53:46;;;;;;;9.03;7.70;;;;;;;14.98;100.00;100009.41;5031068;28;20177;-61
2022/06/06 01:56:15;;;;;;;9.93;8.50;;;;;;;14.92;100.00;100007.28;5030728;28;20182;-60
2022/06/06 01:58:40;;;;;;;9.33;8.07;;;;;;;14.95;100.00;100007.88;5031065;28;20637;-61
2022/06/06 02:01:06;;;;;;;8.93;7.57;;;;;;;15.04;100.00;100002.97;5030398;28;20252;-60
2022/06/06 02:03:32;;;;;;;8.60;7.17;;;;;;;15.04;100.00;99995.19;5039089;28;20197;-60
2022/06/06 02:05:57;;;;;;;8.53;7.53;;;;;;;15.13;100.00;100000.50;5048976;28;20181;-68
2022/06/06 02:08:23;;;;;;;8.40;7.60;;;;;;;15.10;100.00;99997.31;5042037;28;20190;-60
2022/06/06 02:10:49;;;;;;;10.63;7.67;;;;;;;15.08;100.00;99987.09;5028856;28;20229;-62
2022/06/06 02:13:14;;;;;;;7.87;7.10;;;;;;;14.99;100.00;99995.53;5042812;28;20185;-63
2022/06/06 02:15:40;;;;;;;9.40;6.97;;;;;;;15.06;100.00;100003.66;5030297;28;20174;-61
2022/06/06 02:18:06;;;;;;;8.83;7.23;;;;;;;15.13;100.00;100007.44;5031497;28;20232;-61
2022/06/06 02:20:32;;;;;;;8.23;7.40;;;;;;;15.11;100.00;100004.97;5025341;28;20221;-61
2022/06/06 02:22:59;;;;;;;8.77;7.27;;;;;;;15.14;100.00;100012.53;5030483;28;20636;-61
2022/06/06 02:25:25;;;;;;;7.77;6.93;;;;;;;15.08;100.00;100017.34;5035747;28;20181;-61
2022/06/06 02:27:51;;;;;;;7.87;7.07;;;;;;;15.14;100.00;100020.31;5049706;28;20629;-60
2022/06/06 02:30:20;;;;;;;7.87;6.87;;;;;;;15.03;100.00;100019.44;5041221;28;20173;-61
2022/06/06 02:32:46;;;;;;;7.67;6.87;;;;;;;15.08;100.00;100006.97;5050749;28;20173;-60
2022/06/06 02:35:16;;;;;;;9.37;7.83;;;;;;;15.02;100.00;100013.44;5051555;28;20214;-61
2022/06/06 02:37:42;;;;;;;8.33;6.90;;;;;;;15.04;100.00;100013.34;5051152;28;20536;-60
2022/06/06 02:40:10;;;;;;;8.87;7.00;;;;;;;15.06;100.00;100017.47;5039971;28;20178;-60
2022/06/06 02:42:37;;;;;;;8.23;6.67;;;;;;;15.05;100.00;100020.16;5050510;28;20193;-61
2022/06/06 02:45:03;;;;;;;8.07;7.33;;;;;;;14.90;100.00;100022.13;5033986;28;20235;-60
2022/06/06 02:47:30;;;;;;;8.40;7.40;;;;;;;14.91;100.00;100016.84;5029386;28;20268;-61
2022/06/06 02:49:55;;;;;;;9.23;7.67;;;;;;;14.97;100.00;100018.13;5030344;28;20273;-61
2022/06/06 02:52:21;;;;;;;8.23;6.83;;;;;;;14.93;100.00;100009.75;5037000;28;20768;-61
2022/06/06 02:54:46;;;;;;;8.93;7.90;;;;;;;14.87;100.00;100012.81;5031783;28;20170;-61
2022/06/06 02:57:12;;;;;;;9.77;7.90;;;;;;;14.84;100.00;100003.50;5029926;28;20189;-61
2022/06/06 02:59:38;;;;;;;10.27;7.23;;;;;;;14.82;100.00;99995.03;5031455;28;20189;-60
2022/06/06 03:02:04;;;;;;;10.17;7.77;;;;;;;14.78;100.00;99988.41;5021301;28;20287;-62
2022/06/06 03:04:30;;;;;;;13.90;8.57;;;;;;;14.71;100.00;100000.19;5052523;28;20188;-61
2022/06/06 03:07:09;;;;;;;8.33;6.67;;;;;;;14.60;100.00;100011.28;5039030;28;20174;-61
2022/06/06 03:09:51;;;;;;;8.87;7.43;;;;;;;14.62;100.00;100011.97;5034074;28;20185;-60
2022/06/06 03:12:53;;;;;;;9.90;8.53;;;;;;;14.60;100.00;100002.69;5057857;28;20225;-60
2022/06/06 03:15:25;;;;;;;12.13;7.93;;;;;;;14.58;100.00;100010.56;5025077;28;20643;-62
2022/06/06 03:21:17;;;;;;;11.20;8.37;;;;;;;14.26;100.00;100025.81;5024642;28;20743;-60
2022/06/06 03:23:43;;;;;;;9.77;8.77;;;;;;;14.23;100.00;100032.03;5045635;28;20241;-61
2022/06/06 03:26:11;;;;;;;12.40;9.67;;;;;;;14.25;100.00;100031.94;5040155;28;20648;-60
2022/06/06 03:28:55;;;;;;;11.67;9.10;;;;;;;14.22;100.00;100034.75;5035244;28;20166;-60
2022/06/06 03:31:40;;;;;;;10.97;9.63;;;;;;;14.16;100.00;100036.00;5002522;28;20709;-61
2022/06/06 03:34:33;;;;;;;10.67;9.57;;;;;;;14.11;100.00;100046.66;5030234;28;20186;-62
2022/06/06 03:37:34;;;;;;;11.87;9.87;;;;;;;14.17;100.00;100045.41;5034594;28;20182;-62
2022/06/06 03:40:11;;;;;;;10.47;9.20;;;;;;;14.23;100.00;100051.91;5035206;28;20178;-61
2022/06/06 03:42:48;;;;;;;11.67;9.60;;;;;;;14.23;100.00;100046.72;5007229;28;20222;-60
2022/06/06 03:45:33;;;;;;;10.07;9.03;;;;;;;14.57;100.00;100052.09;5033470;28;20181;-61
2022/06/06 03:48:15;;;;;;;11.63;9.70;;;;;;;14.84;100.00;100060.47;5051094;28;20182;-61
2022/06/06 03:50:45;;;;;;;11.17;9.13;;;;;;;15.06;100.00;100058.91;5046354;28;20255;-60
2022/06/06 03:53:21;;;;;;;11.23;8.93;;;;;;;15.03;100.00;100055.72;5064556;28;20189;-59
2022/06/06 03:56:01;;;;;;;11.53;9.47;;;;;;;15.01;100.00;100063.59;5054472;28;20552;-61
2022/06/06 03:58:30;;;;;;;13.43;9.90;;;;;;;15.14;100.00;100061.75;5052991;28;20276;-61
2022/06/06 04:00:59;;;;;;;9.70;8.70;;;;;;;15.26;100.00;100069.56;5029339;28;20275;-61
2022/06/06 04:03:26;;;;;;;13.17;9.17;;;;;;;15.31;100.00;100073.44;5038755;28;20213;-60
2022/06/06 04:05:52;;;;;;;9.60;8.63;;;;;;;15.51;100.00;100083.25;5017589;28;20187;-60
2022/06/06 04:08:17;;;;;;;12.63;8.47;;;;;;;15.74;100.00;100078.91;5036325;28;20212;-60
2022/06/06 04:11:12;;;;;;;8.60;7.80;;;;;;;15.81;100.00;100082.69;5043540;28;20268;-60
2022/06/06 04:14:08;;;;;;;9.13;8.20;;;;;;;15.94;100.00;100087.78;5002164;28;20272;-60
2022/06/06 04:16:53;;;;;;;12.93;8.37;;;;;;;16.30;100.00;100091.84;5033623;28;20306;-60
2022/06/06 04:19:32;;;;;;;12.83;8.20;;;;;;;16.44;100.00;100079.56;5032402;28;20181;-62
2022/06/06 04:22:19;;;;;;;8.73;7.17;;;;;;;16.56;100.00;100082.94;5026096;28;20232;-61
2022/06/06 04:25:06;;;;;;;8.53;7.27;;;;;;;16.73;100.00;100063.41;5050809;28;20256;-61
2022/06/06 04:27:43;;;;;;;8.43;6.77;;;;;;;16.98;100.00;100064.88;5033136;28;20174;-60
2022/06/06 04:30:26;;;;;;;7.37;6.40;;;;;;;17.00;100.00;100075.13;5024610;28;20193;-60
2022/06/06 04:33:10;;;;;;;12.53;6.40;;;;;;;17.00;100.00;100075.13;5046154;28;20174;-60
2022/06/06 04:35:57;;;;;;;7.40;6.63;;;;;;;16.98;100.00;100074.44;5033517;28;20178;-60
2022/06/06 04:39:02;;;;;;;10.33;6.37;;;;;;;16.89;100.00;100069.03;5033572;28;20190;-60
2022/06/06 04:41:51;;;;;;;8.80;6.80;;;;;;;17.06;100.00;100072.84;5033933;28;20283;-60
2022/06/06 04:44:20;;;;;;;8.67;7.20;;;;;;;17.14;100.00;100072.22;5031854;28;20666;-60
2022/06/06 04:46:53;;;;;;;8.03;6.70;;;;;;;17.19;100.00;100077.88;5039792;28;20185;-61
2022/06/06 04:49:21;;;;;;;7.80;6.80;;;;;;;17.34;100.00;100080.13;5052056;28;20181;-62
2022/06/06 04:51:47;;;;;;;7.37;6.40;;;;;;;17.41;100.00;100076.91;5044865;28;20398;-61
2022/06/06 04:54:17;;;;;;;7.87;6.17;;;;;;;17.75;100.00;100070.63;5051824;28;20330;-61
2022/06/06 04:56:44;;;;;;;6.10;5.50;;;;;;;17.75;100.00;100087.03;5050726;28;20235;-60
2022/06/06 04:59:11;;;;;;;7.43;6.73;;;;;;;17.79;100.00;100076.41;5033272;28;20320;-62
2022/06/06 05:01:38;;;;;;;6.97;6.33;;;;;;;17.76;100.00;100072.25;5024627;28;20221;-60
2022/06/06 05:04:04;;;;;;;8.07;6.30;;;;;;;17.96;100.00;100080.16;5060221;28;20212;-61
2022/06/06 05:06:56;;;;;;;7.70;6.60;;;;;;;18.02;100.00;100072.66;5056885;28;20260;-60
2022/06/06 05:09:44;;;;;;;7.67;5.93;;;;;;;17.91;100.00;100077.91;5051599;28;20217;-59
2022/06/06 05:12:15;;;;;;;8.00;7.00;;;;;;;17.83;100.00;100070.78;5025484;28;20279;-59
2022/06/06 05:15:05;;;;;;;6.57;5.83;;;;;;;17.69;100.00;100073.75;5052258;28;20176;-59
2022/06/06 05:17:53;;;;;;;8.07;6.40;;;;;;;17.83;100.00;100075.97;5051443;28;20221;-59
2022/06/06 05:20:35;;;;;;;9.13;7.27;;;;;;;17.85;100.00;100081.03;5021359;28;20177;-60
2022/06/06 05:23:13;;;;;;;7.17;6.47;;;;;;;17.83;100.00;100088.19;5019107;28;20209;-59
2022/06/06 05:25:45;;;;;;;10.33;6.90;;;;;;;17.93;100.00;100083.81;5041126;28;20172;-59
2022/06/06 05:28:31;;;;;;;8.80;7.33;;;;;;;17.90;100.00;100092.72;5050674;28;20182;-59
2022/06/06 05:31:09;;;;;;;6.97;6.37;;;;;;;18.28;100.00;100099.97;5042042;28;20228;-60
2022/06/06 05:33:41;;;;;;;9.50;6.30;;;;;;;18.58;100.00;100093.03;5051806;28;20668;-60
2022/06/06 05:36:43;;;;;;;8.37;6.43;;;;;;;18.58;100.00;100106.06;5049141;28;20188;-60
2022/06/06 05:39:40;;;;;;;10.53;7.57;;;;;;;18.77;100.00;100102.66;5042876;28;20189;-59
2022/06/06 05:42:15;;;;;;;7.90;7.17;;;;;;;18.87;100.00;100106.09;5052423;28;20256;-60
2022/06/06 05:44:56;;;;;;;7.93;6.67;;;;;;;18.95;100.00;100103.66;5045380;28;20731;-61
2022/06/06 05:47:45;;;;;;;7.43;6.60;;;;;;;19.05;100.00;100095.00;5037392;28;20178;-59
2022/06/06 05:50:29;;;;;;;9.50;7.37;;;;;;;19.29;100.00;100108.41;5023742;28;20261;-60
2022/06/06 05:52:57;;;;;;;7.60;6.73;;;;;;;19.34;100.00;100100.97;5044383;28;20221;-61
2022/06/06 05:55:41;;;;;;;6.80;6.20;;;;;;;19.39;100.00;100100.56;5042674;28;20182;-58
2022/06/06 05:58:19;;;;;;;6.80;6.20;;;;;;;19.50;100.00;100097.78;5046346;28;20189;-59
2022/06/06 06:00:50;;;;;;;7.53;6.50;;;;;;;19.50;100.00;100096.97;5028547;28;20255;-60
2022/06/06 06:03:28;;;;;;;7.40;6.67;;;;;;;19.50;100.00;100099.56;5043225;28;20194;-60
2022/06/06 06:06:22;;;;;;;8.70;6.77;;;;;;;19.48;100.00;100096.28;5050666;28;20169;-59
2022/06/06 06:08:50;;;;;;;9.43;7.00;;;;;;;19.30;100.00;100093.56;5030489;28;20193;-60
2022/06/06 06:11:53;;;;;;;8.80;6.90;;;;;;;19.65;100.00;100099.94;5040894;28;20225;-59
2022/06/06 06:14:31;;;;;;;10.27;6.33;;;;;;;20.63;96.37;100104.66;5038965;28;20220;-59
2022/06/06 06:16:59;;;;;;;6.93;6.20;;;;;;;21.66;86.76;100108.56;5045523;28;20271;-60
2022/06/06 06:19:39;;;;;;;6.33;5.73;;;;;;;21.95;83.50;100113.44;5050266;28;20693;-59
2022/06/06 06:22:07;;;;;;;6.53;5.50;;;;;;;21.95;81.91;100116.06;5026338;28;20631;-58
2022/06/06 06:24:37;;;;;;;5.87;5.37;;;;;;;21.85;80.72;100115.38;5049080;28;20266;-59
2022/06/06 06:27:04;;;;;;;5.87;5.23;;;;;;;21.64;80.74;100113.13;5029947;28;20544;-59
2022/06/06 06:29:29;;;;;;;6.67;6.03;;;;;;;21.37;81.10;100118.34;5030310;28;20236;-59
2022/06/06 06:32:13;;;;;;;7.07;6.00;;;;;;;20.93;83.07;100113.94;5036016;28;20691;-61
2022/06/06 06:35:01;;;;;;;5.57;5.07;;;;;;;20.65;84.14;100118.38;5031489;28;20201;-60
2022/06/06 06:38:04;;;;;;;7.60;6.30;;;;;;;20.58;87.34;100128.63;5028993;28;20655;-60
2022/06/06 06:40:46;;;;;;;7.17;6.00;;;;;;;20.53;89.09;100130.03;5024828;28;20698;-59
2022/06/06 06:43:45;;;;;;;6.70;6.00;;;;;;;21.12;84.85;100143.50;5029753;28;20210;-59
2022/06/06 06:46:13;;;;;;;5.87;4.87;;;;;;;21.33;81.84;100143.16;5034283;28;20184;-60
2022/06/06 06:48:48;;;;;;;5.53;4.97;;;;;;;21.36;81.54;100142.03;5050019;28;20203;-60
2022/06/06 06:51:16;;;;;;;6.23;5.37;;;;;;;21.34;80.18;100139.56;5042779;28;20685;-59
2022/06/06 06:53:51;;;;;;;7.40;5.23;;;;;;;21.32;80.65;100138.91;5045472;28;20277;-59
2022/06/06 06:56:19;;;;;;;5.40;4.97;;;;;;;21.42;80.60;100150.09;5054346;28;20211;-58
2022/06/06 06:58:55;;;;;;;7.20;5.33;;;;;;;21.71;78.23;100135.09;5058672;28;20188;-59
2022/06/06 07:01:33;;;;;;;6.40;5.57;;;;;;;21.87;76.03;100136.97;5027831;28;20674;-60
2022/06/06 07:10:25;;;;;;;6.40;4.83;;;;;;;23.41;68.86;100155.97;5040041;28;20192;-60
2022/06/06 07:13:21;;;;;;;5.70;5.20;;;;;;;23.13;68.21;100162.34;5037743;28;20547;-59
2022/06/06 07:15:52;;;;;;;7.47;5.83;;;;;;;23.94;64.98;100154.56;5036420;28;20732;-60
2022/06/06 07:18:21;;;;;;;7.30;5.30;;;;;;;23.71;65.42;100151.78;5049790;28;20193;-58
2022/06/06 07:20:48;;;;;;;4.80;4.40;;;;;;;23.03;68.08;100164.31;5036325;28;20243;-58
2022/06/06 07:23:15;;;;;;;6.20;4.90;;;;;;;22.54;69.54;100149.34;5039491;28;20217;-59
2022/06/06 07:25:45;;;;;;;8.40;5.60;;;;;;;22.15;73.08;100158.53;5050038;28;20641;-60
2022/06/06 07:28:17;;;;;;;5.93;5.33;;;;;;;21.80;75.39;100154.28;5068478;28;20177;-60
2022/06/06 07:30:59;;;;;;;5.50;5.00;;;;;;;21.34;77.60;100157.09;5017317;28;20218;-60
2022/06/06 07:33:52;;;;;;;5.77;5.27;;;;;;;20.70;81.27;100160.59;5040827;28;20260;-60
2022/06/06 07:36:20;;;;;;;5.93;4.90;;;;;;;20.39;84.22;100165.31;5050433;28;20331;-60
2022/06/06 07:39:10;;;;;;;4.97;4.47;;;;;;;19.79;87.33;100156.06;5050487;28;20243;-60
2022/06/06 07:42:00;;;;;;;5.20;4.80;;;;;;;19.31;92.80;100163.03;5041627;28;20255;-61
2022/06/06 07:44:44;;;;;;;4.70;3.83;;;;;;;19.19;94.57;100168.38;5037427;28;20255;-61
2022/06/06 07:47:28;;;;;;;6.27;4.63;;;;;;;19.01;98.87;100170.88;5042134;28;20181;-61
2022/06/06 07:50:03;;;;;;;6.17;4.60;;;;;;;18.94;100.00;100167.16;5052594;28;20555;-60
2022/06/06 07:52:45;;;;;;;5.03;4.53;;;;;;;18.91;100.00;100159.59;5041467;28;20220;-60
2022/06/06 07:55:34;;;;;;;5.40;4.70;;;;;;;18.98;100.00;100167.72;5049307;28;20220;-60
2022/06/06 07:58:03;;;;;;;4.87;4.47;;;;;;;18.97;100.00;100166.88;5052473;28;20238;-60
2022/06/06 08:00:28;;;;;;;6.30;5.27;;;;;;;18.83;100.00;100165.47;5047665;28;20228;-59
2022/06/06 08:02:59;;;;;;;7.17;4.30;;;;;;;18.67;100.00;100163.38;5066500;28;20193;-61
2022/06/06 08:05:46;;;;;;;6.90;4.73;;;;;;;18.26;100.00;100165.22;5052975;28;20188;-62
2022/06/06 08:08:44;;;;;;;7.37;5.13;;;;;;;17.93;100.00;100166.28;5053621;28;20294;-59
2022/06/06 08:11:19;;;;;;;5.83;4.97;;;;;;;18.11;100.00;100167.34;5052782;28;20260;-61
2022/06/06 08:14:10;;;;;;;4.20;3.83;;;;;;;17.80;100.00;100164.72;5052798;28;20183;-60
2022/06/06 08:16:50;;;;;;;4.93;4.30;;;;;;;17.84;100.00;100167.88;5053642;28;20304;-60
2022/06/06 08:19:43;;;;;;;4.43;4.03;;;;;;;17.94;100.00;100160.13;5053022;28;20651;-59
2022/06/06 08:22:09;;;;;;;4.33;3.47;;;;;;;18.30;100.00;100163.19;5042944;28;20233;-59
2022/06/06 08:24:45;;;;;;;5.03;3.70;;;;;;;18.44;100.00;100169.78;5052533;28;20221;-59
2022/06/06 08:27:13;;;;;;;4.27;3.90;;;;;;;18.76;100.00;100171.38;5051903;28;20651;-60
2022/06/06 08:29:41;;;;;;;4.03;3.70;;;;;;;18.98;100.00;100178.13;5052535;28;20181;-60
2022/06/06 08:32:07;;;;;;;5.67;4.07;;;;;;;19.15;100.00;100167.03;5028507;28;20233;-60
2022/06/06 08:34:33;;;;;;;4.27;3.90;;;;;;;19.14;100.00;100173.19;5052210;28;20204;-60
2022/06/06 08:37:11;;;;;;;3.90;3.60;;;;;;;19.46;100.00;100172.06;5051705;28;20200;-60
2022/06/06 08:39:57;;;;;;;5.77;4.33;;;;;;;19.65;100.00;100173.81;5051935;28;20323;-60
2022/06/06 08:42:42;;;;;;;3.53;3.23;;;;;;;19.57;98.95;100168.47;5042314;28;20529;-60
2022/06/06 08:45:44;;;;;;;3.67;3.07;;;;;;;19.49;99.62;100156.13;5035343;28;20193;-61
2022/06/06 08:48:31;;;;;;;4.10;3.60;;;;;;;19.94;97.45;100159.88;5032759;28;20192;-62
2022/06/06 08:50:59;;;;;;;4.90;3.07;;;;;;;20.50;94.35;100161.69;5034340;28;20228;-60
2022/06/06 08:53:44;;;;;;;3.87;3.00;;;;;;;20.39;90.39;100157.47;5052772;28;20224;-62
2022/06/06 08:56:31;;;;;;;3.03;2.60;;;;;;;20.86;91.56;100148.69;5051322;28;20201;-62
2022/06/06 08:59:15;;;;;;;4.97;3.10;;;;;;;20.93;84.53;100147.91;5050855;28;20181;-61
2022/06/06 09:01:59;;;;;;;3.37;2.90;;;;;;;20.78;86.21;100142.41;5042085;28;20258;-61
2022/06/06 09:04:37;;;;;;;2.87;2.40;;;;;;;21.00;83.61;100137.69;5053083;28;20212;-61
2022/06/06 09:07:24;;;;;;;2.83;2.63;;;;;;;21.45;79.88;100143.75;5052774;28;20177;-60
2022/06/06 09:10:11;;;;;;;2.60;2.30;;;;;;;21.82;78.57;100136.59;5052948;28;20247;-62
2022/06/06 09:13:07;;;;;;;3.60;2.57;;;;;;;22.33;75.68;100137.47;5041701;28;20217;-60
2022/06/06 09:15:51;;;;;;;3.07;2.60;;;;;;;22.67;73.55;100139.19;5031857;28;20178;-59
2022/06/06 09:18:55;;;;;;;3.10;2.80;;;;;;;22.59;72.15;100149.69;5032678;28;20186;-61
2022/06/06 09:21:46;;;;;;;3.97;2.63;;;;;;;22.50;69.86;100145.41;5006085;28;20229;-62
2022/06/06 09:24:36;;;;;;;2.97;2.50;;;;;;;23.42;68.84;100139.22;4991084;28;20318;-60
2022/06/06 09:27:04;;;;;;;3.27;2.67;;;;;;;23.59;69.18;100138.22;4990917;28;20254;-60
2022/06/06 09:29:36;;;;;;;2.67;2.47;;;;;;;24.18;62.32;100145.72;4991108;28;20219;-62
2022/06/06 09:32:30;;;;;;;2.75;2.40;;;;;;;25.48;57.27;100139.88;4996861;28;20292;-60
2022/06/06 09:35:22;;;;;;;2.63;2.42;;;;;;;27.34;47.35;100147.41;4970034;28;20558;-61
2022/06/06 09:38:09;;;;;;;2.55;2.00;;;;;;;29.88;40.35;100155.00;4974152;28;20698;-60
2022/06/06 09:40:57;;;;;;;2.10;2.00;;;;;;;30.90;38.54;100143.63;4985096;28;20258;-62
2022/06/06 09:44:02;;;;;;;2.38;1.75;;;;;;;32.35;34.75;100137.97;4983769;28;20199;-60
2022/06/06 09:46:46;;;;;;;2.10;1.90;;;;;;;33.10;35.03;100142.97;5000127;28;20183;-60
2022/06/06 09:49:30;;;;;;;1.85;1.63;;;;;;;33.38;32.46;100144.94;5004774;28;20276;-60
2022/06/06 09:52:12;;;;;;;1.98;1.70;;;;;;;33.90;30.14;100137.97;4965618;28;20375;-62
2022/06/06 10:00:50;;;;;;;1.80;1.50;;;;;;;34.74;29.12;100133.84;4995147;28;20268;-60
2022/06/06 10:03:40;;;;;;;1.92;1.70;;;;;;;35.50;27.49;100136.00;5031317;28;20251;-62
2022/06/06 10:06:36;;;;;;;1.48;1.38;;;;;;;33.89;27.03;100115.84;5030979;28;20178;-61
2022/06/06 10:09:44;;;;;;;2.33;1.52;;;;;;;34.98;26.91;100106.94;5032221;28;20189;-62
2022/06/06 10:12:25;;;;;;;2.42;1.88;;;;;;;33.70;27.17;100117.81;5020138;28;20251;-62
2022/06/06 10:15:12;;;;;;;1.52;1.42;;;;;;;34.85;26.87;100110.75;5049271;28;20204;-62
2022/06/06 10:17:55;;;;;;;1.58;1.45;;;;;;;32.80;28.99;100110.06;5051343;28;20668;-60
2022/06/06 10:20:34;;;;;;;2.35;1.40;;;;;;;33.53;27.96;100098.28;5040437;28;20208;-62
2022/06/06 10:23:23;;;;;;;5.05;1.60;;;;;;;31.47;32.57;100099.34;5038446;28;20217;-60
2022/06/06 10:26:19;;;;;;;1.92;1.50;;;;;;;31.86;31.67;100099.94;5039728;28;20205;-61
2022/06/06 10:29:16;;;;;;;3.05;1.60;;;;;;;30.47;32.42;100090.44;5031719;28;20170;-61
2022/06/06 10:32:25;;;;;;;6.32;1.63;;;;;;;31.91;32.15;100089.44;5023356;28;20374;-60
2022/06/06 10:35:02;;;;;;;2.67;1.52;;;;;;;33.39;30.68;100082.59;5032258;28;20177;-61
2022/06/06 10:37:53;;;;;;;2.38;1.48;;;;;;;29.57;34.37;100069.09;5031202;28;20190;-61
2022/06/06 10:40:56;;;;;;;2.40;2.20;;;;;;;28.22;35.63;100064.06;5023953;28;20170;-60
2022/06/06 10:43:58;;;;;;;3.35;1.85;;;;;;;27.64;39.76;100060.81;5036689;28;20198;-61
2022/06/06 10:46:30;;;;;;;2.63;1.92;;;;;;;27.30;39.74;100062.47;5042219;28;20667;-61
2022/06/06 10:49:14;;;;;;;2.10;1.80;;;;;;;26.63;42.88;100075.16;5050178;28;20655;-61
2022/06/06 10:51:53;;;;;;;2.78;1.70;;;;;;;25.88;43.82;100072.75;5040518;28;20237;-59
2022/06/06 10:54:52;;;;;;;2.72;1.90;;;;;;;25.36;44.37;100076.31;5051265;28;20180;-60
2022/06/06 10:57:42;;;;;;;1.60;1.50;;;;;;;25.44;45.37;100063.06;5050872;28;20645;-61
2022/06/06 11:00:26;;;;;;;2.70;1.50;;;;;;;25.69;43.66;100058.34;5031020;28;20181;-60
2022/06/06 11:03:12;;;;;;;2.47;1.60;;;;;;;25.75;42.18;100059.41;5037051;28;20220;-61
2022/06/06 11:05:52;;;;;;;3.80;1.83;;;;;;;25.88;42.36;100059.56;5051067;28;20260;-61
2022/06/06 11:08:26;;;;;;;1.50;1.40;;;;;;;25.48;43.12;100055.63;5050910;28;20264;-60
2022/06/06 11:11:15;;;;;;;1.85;1.50;;;;;;;25.21;43.41;100047.34;5036357;28;20232;-60
2022/06/06 11:13:57;;;;;;;1.73;1.63;;;;;;;24.99;42.07;100055.13;5050765;28;20185;-60
2022/06/06 11:16:53;;;;;;;1.52;1.42;;;;;;;25.14;43.04;100055.97;5031465;28;20244;-61
2022/06/06 11:19:34;;;;;;;1.73;1.63;;;;;;;25.33;43.96;100055.59;5051396;28;20181;-59
2022/06/06 11:22:21;;;;;;;1.38;1.27;;;;;;;25.44;43.44;100045.47;5040087;28;20330;-60
2022/06/06 11:25:05;;;;;;;2.13;1.40;;;;;;;25.24;42.20;100053.06;5050618;28;20260;-60
2022/06/06 11:27:35;;;;;;;1.55;1.40;;;;;;;25.01;41.88;100032.09;5033221;28;20182;-59
2022/06/06 11:30:25;;;;;;;4.15;1.40;;;;;;;24.15;43.37;100038.34;5033841;28;20301;-59
2022/06/06 11:33:15;;;;;;;3.40;1.55;;;;;;;24.65;43.62;100032.75;4970720;28;20229;-59
2022/06/06 11:36:16;;;;;;;3.20;1.40;;;;;;;24.46;44.02;100034.00;5033653;28;20197;-60
2022/06/06 11:39:21;;;;;;;3.00;1.40;;;;;;;24.22;43.56;100019.25;5035240;28;20292;-61
2022/06/06 11:42:14;;;;;;;1.83;1.47;;;;;;;24.06;44.39;100023.59;5026122;28;20253;-59
2022/06/06 11:45:16;;;;;;;3.47;1.70;;;;;;;24.21;43.94;100015.78;5049625;28;20630;-62
2022/06/06 11:47:52;;;;;;;1.20;1.10;;;;;;;24.62;44.59;100019.91;5049843;28;20165;-60
2022/06/06 11:50:35;;;;;;;1.30;1.20;;;;;;;24.30;44.91;100020.00;5045322;28;20208;-60
2022/06/06 11:53:04;;;;;;;1.63;1.43;;;;;;;24.39;44.99;100017.34;5053443;28;20165;-60
2022/06/06 11:55:40;;;;;;;1.67;1.43;;;;;;;24.52;44.39;100011.47;5054203;28;20177;-60
2022/06/06 11:58:08;;;;;;;3.93;1.50;;;;;;;24.77;45.86;100005.03;5054384;28;20180;-60
2022/06/06 12:01:04;;;;;;;2.20;1.30;;;;;;;24.89;45.04;99996.69;5048405;28;20248;-60
2022/06/06 12:03:51;;;;;;;3.87;1.20;;;;;;;24.93;41.58;99988.28;5061751;28;20201;-60
2022/06/06 12:06:54;;;;;;;1.10;1.00;;;;;;;24.75;43.95;100000.94;5054120;28;20184;-59
2022/06/06 12:09:39;;;;;;;2.60;0.97;;;;;;;25.00;39.61;99984.91;5054364;28;20632;-60
2022/06/06 12:12:30;;;;;;;2.60;1.47;;;;;;;25.25;40.48;99982.81;5059590;28;20232;-63
2022/06/06 12:15:22;;;;;;;1.25;1.10;;;;;;;25.48;38.90;99981.91;5035329;28;20181;-62
2022/06/06 12:18:07;;;;;;;2.65;1.35;;;;;;;25.97;40.48;99997.03;5031671;28;20251;-60
2022/06/06 12:20:56;;;;;;;1.13;1.02;;;;;;;25.84;38.69;99986.34;5025375;28;20585;-60
2022/06/06 12:23:49;;;;;;;1.40;1.30;;;;;;;25.77;37.68;99979.19;5032735;28;20248;-60
2022/06/06 12:26:42;;;;;;;1.15;1.00;;;;;;;25.54;38.17;99974.09;5033485;28;20190;-60
2022/06/06 12:29:32;;;;;;;2.58;1.40;;;;;;;25.42;38.56;99979.00;5034182;28;20269;-60